Ana Sayfa
METAR-TAF:

METAR-TAF

Havaalanları :

Grand Canyon, Arizona, Amerika Birleşik Devletleri

Enlem: 35-56-46N, Boylam: 112-09-17W, yükseklik: 2014 m

Güncel hava durumu gözlemi

Rapor saat 09:54 UTC de 14 dakika önce yapıldı.
Sakin rüzgar
Sıcaklık 10°C
Nem 50%
Basınç 1025 hPa
Görüş mesafesi: 6.4 km
Açık gökyüzü
Toz Pusu

METAR: KGCN 040954Z AUTO 00000KT 4SM HZ CLR 10/00 A3027 RMK AO2 SLP144 T01000000

Saat: 03:08 (10:08 UTC)

Tahmin

Rapor saat 05:34 UTC de 4 saat ve 34 dakika önce yapıldı.
Ayın 04'si saat 06 UTC'den ayın 05'si saat 06 UTC'ye kadar geçerli Tahmin
Rüzgar değişken yönden 6 kt
Görüş mesafesi: 10 km
Açık gökyüzü
Ayın 04'si saat 1700 UTC'den
Rüzgar güneybatıdan 10 kt ve 18 kt'a kadar ani rüzgarlar
Görüş mesafesi: 10 km
11000 ft yükseklikte az bulutlu
Ayın 05'si saat 0200 UTC'den
Rüzgar değişken yönden 4 kt
Görüş mesafesi: 10 km
Açık gökyüzü

TAF: KGCN 040534Z 0406/0506 VRB06KT P6SM SKC FM041700 22010G18KT P6SM FEW110 FM050200 VRB04KT P6SM SKC

4.000'den fazla havaalanı için hava durumu gözlemleri ve tahminleri (METAR ve TAF raporları).

Kullanılabilir istasyonlar harita üzerinde sarı ve kırmızı noktalarla gösterilir.

İstasyonun adını görmek için fareyi noktanın üzerinde gezdirin.

Sonrasında hava gözlem ve tahminlerini görmek için tıklayın.

Haritayı değiştirmek için: yaklaştırmak için siyah artı işaretli yeşil düğmeye ve uzaklaştırmak için de eksi işaretli düğmeye hızla tıklayın; bitişik haritalar için yeşil okları kullanın.


METAR-TAF: